< < Back
Terminal Aerodrome Forecast


Current Version              Previous Versions:   1  2  3  4  5  6  7  8  9  

Terminal Aerodrome Forecast

732
FTUS42 KCHS 241123
TAFSAV
TAF
KSAV 241123Z 2412/2512 07009KT P6SM SCT025
     FM241600 11013G21KT P6SM BKN040
     FM250000 08007KT P6SM SCT030=



Latest METAR

520
SAUS80 KWBC 250500 RRA
MTRSAV
METAR KSAV 250453Z AUTO 09007KT 10SM SCT050 BKN060 23/18 A3027 RMK AO2
SLP250 T02330178 402830172 TSNO $


USA.gov is the U.S. government's official web portal to all federal, state and local government web resources and services.